sensor_id;sensor_type;location;lat;lon;timestamp;pressure;altitude;pressure_sealevel;temperature;humidity
54876;BME280;40764;48.472;8.166;2023-01-06T00:04:58;98845.47;;;10.12;100.00
54876;BME280;40764;48.472;8.166;2023-01-06T00:11:21;98831.84;;;10.02;100.00
54876;BME280;40764;48.472;8.166;2023-01-06T00:17:25;98832.38;;;10.04;100.00
54876;BME280;40764;48.472;8.166;2023-01-06T00:23:28;98828.25;;;10.11;100.00
54876;BME280;40764;48.472;8.166;2023-01-06T00:29:43;98828.31;;;10.01;100.00
54876;BME280;40764;48.472;8.166;2023-01-06T00:36:01;98819.31;;;9.90;100.00
54876;BME280;40764;48.472;8.166;2023-01-06T00:42:09;98817.41;;;9.86;100.00
54876;BME280;40764;48.472;8.166;2023-01-06T00:48:25;98803.22;;;9.84;100.00
54876;BME280;40764;48.472;8.166;2023-01-06T00:54:36;98812.78;;;9.66;100.00
54876;BME280;40764;48.472;8.166;2023-01-06T01:01:09;98816.88;;;9.74;100.00
54876;BME280;40764;48.472;8.166;2023-01-06T01:07:31;98810.34;;;9.70;100.00
54876;BME280;40764;48.472;8.166;2023-01-06T01:13:49;98818.25;;;9.66;100.00
54876;BME280;40764;48.472;8.166;2023-01-06T01:19:59;98809.78;;;9.52;100.00
54876;BME280;40764;48.472;8.166;2023-01-06T01:26:33;98818.53;;;9.39;100.00
54876;BME280;40764;48.472;8.166;2023-01-06T01:32:57;98818.81;;;9.32;100.00
54876;BME280;40764;48.472;8.166;2023-01-06T01:39:13;98826.97;;;9.43;100.00
54876;BME280;40764;48.472;8.166;2023-01-06T01:45:23;98825.09;;;9.28;100.00
54876;BME280;40764;48.472;8.166;2023-01-06T01:51:34;98822.06;;;9.40;100.00
54876;BME280;40764;48.472;8.166;2023-01-06T01:58:00;98812.81;;;9.30;100.00
54876;BME280;40764;48.472;8.166;2023-01-06T02:04:15;98815.53;;;9.25;100.00
54876;BME280;40764;48.472;8.166;2023-01-06T02:10:28;98807.88;;;9.07;100.00
54876;BME280;40764;48.472;8.166;2023-01-06T02:16:56;98802.38;;;8.87;100.00
54876;BME280;40764;48.472;8.166;2023-01-06T02:49:41;98794.72;;;8.84;100.00
54876;BME280;40764;48.472;8.166;2023-01-06T02:56:10;98789.28;;;8.74;100.00
54876;BME280;40764;48.472;8.166;2023-01-06T03:02:19;98781.09;;;8.84;100.00
54876;BME280;40764;48.472;8.166;2023-01-06T03:08:28;98778.09;;;8.90;100.00
54876;BME280;40764;48.472;8.166;2023-01-06T03:14:43;98767.78;;;9.03;100.00
54876;BME280;40764;48.472;8.166;2023-01-06T03:21:32;98771.59;;;9.02;100.00
54876;BME280;40764;48.472;8.166;2023-01-06T03:27:56;98769.69;;;9.22;100.00
54876;BME280;40764;48.472;8.166;2023-01-06T03:34:30;98766.44;;;9.30;100.00
54876;BME280;40764;48.472;8.166;2023-01-06T03:54:58;98765.59;;;9.35;100.00
54876;BME280;40764;48.472;8.166;2023-01-06T04:01:12;98767.50;;;9.55;100.00
54876;BME280;40764;48.472;8.166;2023-01-06T04:07:32;98768.56;;;9.54;100.00
54876;BME280;40764;48.472;8.166;2023-01-06T04:13:57;98775.09;;;9.73;100.00
54876;BME280;40764;48.472;8.166;2023-01-06T04:20:26;98783.34;;;9.58;100.00
54876;BME280;40764;48.472;8.166;2023-01-06T04:26:30;98768.59;;;9.23;100.00
54876;BME280;40764;48.472;8.166;2023-01-06T04:32:55;98769.66;;;9.53;100.00
54876;BME280;40764;48.472;8.166;2023-01-06T04:38:56;98771.88;;;9.46;100.00
54876;BME280;40764;48.472;8.166;2023-01-06T04:45:10;98772.69;;;9.56;100.00
54876;BME280;40764;48.472;8.166;2023-01-06T04:51:34;98769.94;;;9.51;100.00
54876;BME280;40764;48.472;8.166;2023-01-06T04:58:01;98772.16;;;9.54;100.00
54876;BME280;40764;48.472;8.166;2023-01-06T05:04:08;98761.19;;;9.70;100.00
54876;BME280;40764;48.472;8.166;2023-01-06T05:10:20;98755.19;;;9.68;100.00
54876;BME280;40764;48.472;8.166;2023-01-06T05:16:39;98756.84;;;9.63;100.00
54876;BME280;40764;48.472;8.166;2023-01-06T05:22:47;98760.09;;;9.66;100.00
54876;BME280;40764;48.472;8.166;2023-01-06T05:29:01;98743.41;;;9.87;100.00
54876;BME280;40764;48.472;8.166;2023-01-06T05:35:07;98735.22;;;9.82;100.00
54876;BME280;40764;48.472;8.166;2023-01-06T05:41:21;98727.03;;;9.77;100.00
54876;BME280;40764;48.472;8.166;2023-01-06T05:47:36;98742.59;;;9.77;100.00
54876;BME280;40764;48.472;8.166;2023-01-06T05:53:43;98739.88;;;9.87;100.00
54876;BME280;40764;48.472;8.166;2023-01-06T06:00:14;98734.16;;;9.83;100.00
54876;BME280;40764;48.472;8.166;2023-01-06T06:06:33;98750.47;;;9.99;100.00
54876;BME280;40764;48.472;8.166;2023-01-06T06:12:50;98761.41;;;9.99;100.00
54876;BME280;40764;48.472;8.166;2023-01-06T06:19:12;98763.03;;;9.94;100.00
54876;BME280;40764;48.472;8.166;2023-01-06T06:25:23;98767.91;;;10.08;100.00
54876;BME280;40764;48.472;8.166;2023-01-06T06:31:39;98774.47;;;10.22;100.00
54876;BME280;40764;48.472;8.166;2023-01-06T06:37:47;98774.19;;;10.08;100.00
54876;BME280;40764;48.472;8.166;2023-01-06T06:43:58;98780.50;;;9.99;100.00
54876;BME280;40764;48.472;8.166;2023-01-06T06:50:19;98793.66;;;9.86;100.00
54876;BME280;40764;48.472;8.166;2023-01-06T06:56:29;98803.72;;;9.96;100.00
54876;BME280;40764;48.472;8.166;2023-01-06T07:03:01;98800.44;;;10.04;100.00
54876;BME280;40764;48.472;8.166;2023-01-06T07:09:07;98805.88;;;10.19;100.00
54876;BME280;40764;48.472;8.166;2023-01-06T07:15:10;98812.16;;;10.20;100.00
54876;BME280;40764;48.472;8.166;2023-01-06T07:21:16;98816.00;;;10.14;100.00
54876;BME280;40764;48.472;8.166;2023-01-06T07:27:53;98822.53;;;10.28;98.76
54876;BME280;40764;48.472;8.166;2023-01-06T07:34:15;98829.63;;;10.19;99.39
54876;BME280;40764;48.472;8.166;2023-01-06T07:40:32;98819.50;;;10.35;97.69
54876;BME280;40764;48.472;8.166;2023-01-06T07:47:16;98836.19;;;10.18;96.49
54876;BME280;40764;48.472;8.166;2023-01-06T07:53:22;98836.50;;;10.21;96.64
54876;BME280;40764;48.472;8.166;2023-01-06T07:59:49;98854.78;;;10.21;96.26
54876;BME280;40764;48.472;8.166;2023-01-06T08:06:19;98860.25;;;10.16;96.28
54876;BME280;40764;48.472;8.166;2023-01-06T08:12:38;98854.22;;;10.29;96.17
54876;BME280;40764;48.472;8.166;2023-01-06T08:18:48;98860.25;;;10.21;96.98
54876;BME280;40764;48.472;8.166;2023-01-06T08:24:54;98861.06;;;10.21;96.73
54876;BME280;40764;48.472;8.166;2023-01-06T08:31:06;98866.00;;;9.99;98.99
54876;BME280;40764;48.472;8.166;2023-01-06T08:37:31;98868.19;;;10.02;99.16
54876;BME280;40764;48.472;8.166;2023-01-06T08:43:46;98864.63;;;10.07;99.98
54876;BME280;40764;48.472;8.166;2023-01-06T08:49:57;98863.28;;;9.94;100.00
54876;BME280;40764;48.472;8.166;2023-01-06T09:03:01;98869.50;;;10.35;100.00
54876;BME280;40764;48.472;8.166;2023-01-06T09:09:18;98891.38;;;10.20;100.00
54876;BME280;40764;48.472;8.166;2023-01-06T09:15:27;98892.44;;;10.44;100.00
54876;BME280;40764;48.472;8.166;2023-01-06T09:21:38;98889.13;;;10.58;100.00
54876;BME280;40764;48.472;8.166;2023-01-06T09:27:47;98891.28;;;10.66;99.58
54876;BME280;40764;48.472;8.166;2023-01-06T09:34:23;98909.59;;;10.65;99.58
54876;BME280;40764;48.472;8.166;2023-01-06T09:47:16;98904.38;;;10.74;98.72
54876;BME280;40764;48.472;8.166;2023-01-06T10:00:00;98897.41;;;11.07;96.76
54876;BME280;40764;48.472;8.166;2023-01-06T10:06:30;98890.16;;;11.26;95.06
54876;BME280;40764;48.472;8.166;2023-01-06T10:20:21;98880.69;;;11.08;92.20
54876;BME280;40764;48.472;8.166;2023-01-06T10:27:01;98851.44;;;11.04;92.72
54876;BME280;40764;48.472;8.166;2023-01-06T10:33:34;98855.72;;;11.20;91.38
54876;BME280;40764;48.472;8.166;2023-01-06T10:52:45;98820.72;;;11.51;86.45
54876;BME280;40764;48.472;8.166;2023-01-06T10:58:56;98824.00;;;11.53;85.69
54876;BME280;40764;48.472;8.166;2023-01-06T11:05:31;98810.59;;;11.52;85.10
54876;BME280;40764;48.472;8.166;2023-01-06T11:12:07;98815.44;;;11.65;84.56
54876;BME280;40764;48.472;8.166;2023-01-06T11:18:34;98820.66;;;11.95;84.72
54876;BME280;40764;48.472;8.166;2023-01-06T11:24:54;98812.91;;;12.02;82.23
54876;BME280;40764;48.472;8.166;2023-01-06T11:37:15;98806.84;;;12.29;80.06
54876;BME280;40764;48.472;8.166;2023-01-06T11:43:44;98802.84;;;12.22;80.86
54876;BME280;40764;48.472;8.166;2023-01-06T11:49:56;98805.97;;;12.10;81.05
54876;BME280;40764;48.472;8.166;2023-01-06T11:56:35;98801.00;;;12.12;79.76
54876;BME280;40764;48.472;8.166;2023-01-06T12:09:53;98784.22;;;11.95;83.46
54876;BME280;40764;48.472;8.166;2023-01-06T12:16:40;98780.84;;;12.03;84.37
54876;BME280;40764;48.472;8.166;2023-01-06T12:29:21;98770.75;;;11.98;83.24
54876;BME280;40764;48.472;8.166;2023-01-06T12:35:44;98764.56;;;11.88;83.08
54876;BME280;40764;48.472;8.166;2023-01-06T12:41:58;98759.63;;;11.56;84.77
54876;BME280;40764;48.472;8.166;2023-01-06T12:48:15;98761.59;;;11.50;85.52
54876;BME280;40764;48.472;8.166;2023-01-06T12:54:41;98752.56;;;11.49;86.23
54876;BME280;40764;48.472;8.166;2023-01-06T13:00:52;98747.34;;;11.53;86.39
54876;BME280;40764;48.472;8.166;2023-01-06T13:14:04;98738.47;;;11.37;87.08
54876;BME280;40764;48.472;8.166;2023-01-06T13:20:26;98742.13;;;11.28;87.61
54876;BME280;40764;48.472;8.166;2023-01-06T13:40:18;98734.97;;;11.61;86.28
54876;BME280;40764;48.472;8.166;2023-01-06T13:46:39;98736.16;;;11.49;86.10
54876;BME280;40764;48.472;8.166;2023-01-06T13:52:52;98739.28;;;11.38;87.39
54876;BME280;40764;48.472;8.166;2023-01-06T13:59:27;98743.50;;;11.54;86.46
54876;BME280;40764;48.472;8.166;2023-01-06T14:12:09;98756.84;;;11.32;86.22
54876;BME280;40764;48.472;8.166;2023-01-06T14:25:05;98758.25;;;11.29;86.46
54876;BME280;40764;48.472;8.166;2023-01-06T14:31:52;98765.66;;;11.24;85.88
54876;BME280;40764;48.472;8.166;2023-01-06T14:38:26;98768.97;;;11.21;85.77
54876;BME280;40764;48.472;8.166;2023-01-06T14:51:17;98763.53;;;11.15;84.94
54876;BME280;40764;48.472;8.166;2023-01-06T14:57:45;98762.22;;;11.08;83.45
54876;BME280;40764;48.472;8.166;2023-01-06T15:04:00;98751.00;;;11.09;84.23
54876;BME280;40764;48.472;8.166;2023-01-06T15:10:32;98755.91;;;11.12;83.82
54876;BME280;40764;48.472;8.166;2023-01-06T15:16:45;98760.88;;;11.05;84.80
54876;BME280;40764;48.472;8.166;2023-01-06T15:22:46;98776.53;;;11.00;84.87
54876;BME280;40764;48.472;8.166;2023-01-06T15:36:02;98781.78;;;10.86;84.92
54876;BME280;40764;48.472;8.166;2023-01-06T15:42:24;98788.16;;;10.76;83.86
54876;BME280;40764;48.472;8.166;2023-01-06T15:49:02;98793.06;;;10.79;83.45
54876;BME280;40764;48.472;8.166;2023-01-06T15:55:37;98796.53;;;10.90;82.59
54876;BME280;40764;48.472;8.166;2023-01-06T16:02:00;98785.09;;;10.83;82.59
54876;BME280;40764;48.472;8.166;2023-01-06T16:08:22;98800.19;;;10.75;83.81
54876;BME280;40764;48.472;8.166;2023-01-06T16:14:36;98802.34;;;10.78;84.45
54876;BME280;40764;48.472;8.166;2023-01-06T16:20:56;98795.03;;;10.64;85.48
54876;BME280;40764;48.472;8.166;2023-01-06T16:27:07;98789.66;;;10.48;87.76
54876;BME280;40764;48.472;8.166;2023-01-06T16:33:43;98799.75;;;10.53;86.93
54876;BME280;40764;48.472;8.166;2023-01-06T16:39:57;98786.75;;;10.24;89.73
54876;BME280;40764;48.472;8.166;2023-01-06T16:46:22;98787.84;;;10.23;90.28
54876;BME280;40764;48.472;8.166;2023-01-06T16:52:49;98785.94;;;10.09;91.74
54876;BME280;40764;48.472;8.166;2023-01-06T16:59:54;98788.91;;;10.28;93.00
54876;BME280;40764;48.472;8.166;2023-01-06T17:06:24;98791.69;;;10.02;93.72
54876;BME280;40764;48.472;8.166;2023-01-06T17:12:35;98794.72;;;10.01;94.01
54876;BME280;40764;48.472;8.166;2023-01-06T17:19:08;98798.81;;;9.93;94.54
54876;BME280;40764;48.472;8.166;2023-01-06T17:25:25;98797.41;;;10.06;93.45
54876;BME280;40764;48.472;8.166;2023-01-06T17:31:48;98793.34;;;10.03;94.31
54876;BME280;40764;48.472;8.166;2023-01-06T17:38:17;98793.38;;;9.83;95.78
54876;BME280;40764;48.472;8.166;2023-01-06T17:44:32;98787.91;;;9.93;94.59
54876;BME280;40764;48.472;8.166;2023-01-06T17:50:45;98791.22;;;9.70;95.67
54876;BME280;40764;48.472;8.166;2023-01-06T17:57:24;98782.22;;;9.64;96.14
54876;BME280;40764;48.472;8.166;2023-01-06T18:03:44;98795.59;;;9.50;96.50
54876;BME280;40764;48.472;8.166;2023-01-06T18:10:20;98796.69;;;9.59;97.07
54876;BME280;40764;48.472;8.166;2023-01-06T18:16:58;98810.09;;;9.56;97.29
54876;BME280;40764;48.472;8.166;2023-01-06T18:23:32;98805.16;;;9.63;96.63
54876;BME280;40764;48.472;8.166;2023-01-06T18:36:38;98815.81;;;9.59;96.31
54876;BME280;40764;48.472;8.166;2023-01-06T18:49:56;98821.25;;;9.49;97.06
54876;BME280;40764;48.472;8.166;2023-01-06T18:56:11;98819.59;;;9.53;96.66
54876;BME280;40764;48.472;8.166;2023-01-06T19:02:51;98818.53;;;9.49;96.94
54876;BME280;40764;48.472;8.166;2023-01-06T19:16:38;98806.25;;;9.47;97.45
54876;BME280;40764;48.472;8.166;2023-01-06T19:22:31;98801.34;;;9.44;97.84
54876;BME280;40764;48.472;8.166;2023-01-06T19:29:05;98798.59;;;9.49;98.14
54876;BME280;40764;48.472;8.166;2023-01-06T19:35:34;98803.22;;;9.23;97.84
54876;BME280;40764;48.472;8.166;2023-01-06T19:41:40;98808.44;;;9.40;98.21
54876;BME280;40764;48.472;8.166;2023-01-06T19:47:58;98796.97;;;9.32;98.60
54876;BME280;40764;48.472;8.166;2023-01-06T20:01:30;98809.22;;;9.25;98.94
54876;BME280;40764;48.472;8.166;2023-01-06T20:07:50;98802.69;;;9.16;99.00
54876;BME280;40764;48.472;8.166;2023-01-06T20:13:59;98809.78;;;9.12;98.96
54876;BME280;40764;48.472;8.166;2023-01-06T20:20:23;98808.72;;;9.28;98.36
54876;BME280;40764;48.472;8.166;2023-01-06T20:26:47;98798.59;;;9.23;97.27
54876;BME280;40764;48.472;8.166;2023-01-06T20:32:50;98801.31;;;9.23;97.10
54876;BME280;40764;48.472;8.166;2023-01-06T20:45:56;98799.97;;;9.31;97.13
54876;BME280;40764;48.472;8.166;2023-01-06T20:52:16;98792.63;;;9.37;96.40
54876;BME280;40764;48.472;8.166;2023-01-06T20:58:17;98786.31;;;9.46;96.19
54876;BME280;40764;48.472;8.166;2023-01-06T21:04:35;98787.69;;;9.39;96.05
54876;BME280;40764;48.472;8.166;2023-01-06T21:10:59;98784.44;;;9.26;97.64
54876;BME280;40764;48.472;8.166;2023-01-06T21:17:23;98783.06;;;9.09;97.91
54876;BME280;40764;48.472;8.166;2023-01-06T21:23:34;98780.31;;;9.14;97.95
54876;BME280;40764;48.472;8.166;2023-01-06T21:29:54;98771.59;;;9.17;98.06
54876;BME280;40764;48.472;8.166;2023-01-06T21:36:11;98770.50;;;9.18;97.15
54876;BME280;40764;48.472;8.166;2023-01-06T21:42:22;98766.97;;;9.17;97.44
54876;BME280;40764;48.472;8.166;2023-01-06T21:48:54;98765.31;;;9.21;96.97
54876;BME280;40764;48.472;8.166;2023-01-06T21:55:03;98761.22;;;9.19;97.30
54876;BME280;40764;48.472;8.166;2023-01-06T22:01:09;98746.50;;;9.15;96.73
54876;BME280;40764;48.472;8.166;2023-01-06T22:07:26;98751.41;;;9.18;97.29
54876;BME280;40764;48.472;8.166;2023-01-06T22:13:50;98755.75;;;9.24;96.93
54876;BME280;40764;48.472;8.166;2023-01-06T22:19:59;98757.41;;;9.25;97.70
54876;BME280;40764;48.472;8.166;2023-01-06T22:26:28;98755.50;;;9.30;96.60
54876;BME280;40764;48.472;8.166;2023-01-06T22:33:06;98760.94;;;9.20;97.08
54876;BME280;40764;48.472;8.166;2023-01-06T22:39:14;98751.41;;;9.08;97.96
54876;BME280;40764;48.472;8.166;2023-01-06T22:45:26;98744.59;;;9.10;98.23
54876;BME280;40764;48.472;8.166;2023-01-06T22:51:40;98735.84;;;9.18;97.78
54876;BME280;40764;48.472;8.166;2023-01-06T22:57:54;98734.47;;;8.90;98.55
54876;BME280;40764;48.472;8.166;2023-01-06T23:04:18;98729.84;;;9.21;97.80
54876;BME280;40764;48.472;8.166;2023-01-06T23:10:31;98728.22;;;9.15;97.95
54876;BME280;40764;48.472;8.166;2023-01-06T23:17:12;98714.03;;;9.13;97.67
54876;BME280;40764;48.472;8.166;2023-01-06T23:23:33;98719.50;;;9.13;98.24
54876;BME280;40764;48.472;8.166;2023-01-06T23:29:55;98712.41;;;9.12;98.05
54876;BME280;40764;48.472;8.166;2023-01-06T23:36:04;98703.44;;;9.02;98.64
54876;BME280;40764;48.472;8.166;2023-01-06T23:42:10;98706.13;;;8.81;99.56
54876;BME280;40764;48.472;8.166;2023-01-06T23:48:21;98707.75;;;8.67;100.00
